Time;durP1;ratioP1;P1;durP2;ratioP2;P2;SDS_P1;SDS_P2;PMS_P1;PMS_P2;Temp;Humidity;BMP_temperature;BMP_pressure;BME280_temperature;BME280_humidity;BME280_pressure;Samples;Min_cycle;Max_cycle;Signal;HPM_P1;HPM_P2
2023/06/03 00:01:16;;;;;;;;;;;;;;;;;;5054843;28;1216;-70
2023/06/03 00:03:44;;;;;;;;;;;;;;;;;;5073184;28;884;-70
2023/06/03 00:06:09;;;;;;;;;;;;;;;;;;5054736;28;1586;-70
2023/06/03 00:08:34;;;;;;;;;;;;;;;;;;5038546;28;1282;-70
2023/06/03 00:11:00;;;;;;;;;;;;;;;;;;5054508;28;1239;-70
2023/06/03 00:13:25;;;;;;;;;;;;;;;;;;5066473;28;1898;-70
2023/06/03 00:15:51;;;;;;;;;;;;;;;;;;5074129;28;1432;-70
2023/06/03 00:18:16;;;;;;;;;;;;;;;;;;5091512;28;1207;-70
2023/06/03 00:20:47;;;;;;;;;;;;;;;;;;5053912;28;1173;-70
2023/06/03 00:23:12;;;;;;;;;;;;;;;;;;5053665;28;1177;-70
2023/06/03 00:25:37;;;;;;;;;;;;;;;;;;5072173;28;1200;-70
2023/06/03 00:28:03;;;;;;;;;;;;;;;;;;5071762;28;1132;-70
2023/06/03 00:30:28;;;;;;;;;;;;;;;;;;5054925;28;778;-70
2023/06/03 00:32:57;;;;;;;;;;;;;;;;;;5055091;28;1255;-70
2023/06/03 00:35:22;;;;;;;;;;;;;;;;;;5053647;28;1960;-70
2023/06/03 00:37:47;;;;;;;;;;;;;;;;;;5036533;28;1249;-71
2023/06/03 00:40:13;;;;;;;;;;;;;;;;;;5071530;28;1157;-70
2023/06/03 00:42:38;;;;;;;;;;;;;;;;;;5073626;28;1149;-70
2023/06/03 00:45:04;;;;;;;;;;;;;;;;;;5092810;28;843;-70
2023/06/03 00:47:29;;;;;;;;;;;;;;;;;;5056389;28;1431;-70
2023/06/03 00:49:54;;;;;;;;;;;;;;;;;;5066708;28;1314;-70
2023/06/03 00:52:21;;;;;;;;;;;;;;;;;;5053504;28;1239;-70
2023/06/03 00:54:49;;;;;;;;;;;;;;;;;;5053803;28;1902;-70
2023/06/03 00:57:14;;;;;;;;;;;;;;;;;;5071729;28;1243;-70
2023/06/03 00:59:40;;;;;;;;;;;;;;;;;;5071863;28;1050;-70
2023/06/03 01:02:06;;;;;;;;;;;;;;;;;;5071951;28;1231;-70
2023/06/03 01:04:31;;;;;;;;;;;;;;;;;;5071710;28;1125;-65
2023/06/03 01:07:06;;;;;;;;;;;;;;;;;;5071238;28;820;-66
2023/06/03 01:09:31;;;;;;;;;;;;;;;;;;5071395;28;1208;-65
2023/06/03 01:12:09;;;;;;;;;;;;;;;;;;5071255;28;1204;-65
2023/06/03 01:14:39;;;;;;;;;;;;;;;;;;5071635;28;1973;-65
2023/06/03 01:17:09;;;;;;;;;;;;;;;;;;5071198;28;1197;-65
2023/06/03 01:19:40;;;;;;;;;;;;;;;;;;5070018;28;1149;-65
2023/06/03 01:22:11;;;;;;;;;;;;;;;;;;5077182;28;1141;-65
2023/06/03 01:24:37;;;;;;;;;;;;;;;;;;5070946;28;1113;-65
2023/06/03 01:27:02;;;;;;;;;;;;;;;;;;5071643;28;841;-65
2023/06/03 01:29:28;;;;;;;;;;;;;;;;;;5053542;28;869;-65
2023/06/03 01:31:55;;;;;;;;;;;;;;;;;;5071938;28;972;-65
2023/06/03 01:34:20;;;;;;;;;;;;;;;;;;5086123;28;1906;-65
2023/06/03 01:36:46;;;;;;;;;;;;;;;;;;5089505;28;1125;-65
2023/06/03 01:39:12;;;;;;;;;;;;;;;;;;5091606;28;1235;-65
2023/06/03 01:41:40;;;;;;;;;;;;;;;;;;5069550;28;1331;-65
2023/06/03 01:44:05;;;;;;;;;;;;;;;;;;5086380;28;1129;-65
2023/06/03 01:46:31;;;;;;;;;;;;;;;;;;5091252;28;967;-65
2023/06/03 01:48:56;;;;;;;;;;;;;;;;;;5072770;28;1187;-65
2023/06/03 01:51:24;;;;;;;;;;;;;;;;;;5073671;28;1396;-65
2023/06/03 01:53:49;;;;;;;;;;;;;;;;;;5091832;28;1910;-70
2023/06/03 01:56:15;;;;;;;;;;;;;;;;;;5073509;28;1291;-70
2023/06/03 01:58:40;;;;;;;;;;;;;;;;;;5075323;28;1062;-70
2023/06/03 02:01:06;;;;;;;;;;;;;;;;;;5061733;28;1121;-70
2023/06/03 02:03:32;;;;;;;;;;;;;;;;;;5096788;28;898;-70
2023/06/03 02:05:57;;;;;;;;;;;;;;;;;;5096228;28;998;-70
2023/06/03 02:08:22;;;;;;;;;;;;;;;;;;5061146;28;1373;-71
2023/06/03 02:10:48;;;;;;;;;;;;;;;;;;5077877;28;1073;-70
2023/06/03 02:13:13;;;;;;;;;;;;;;;;;;5077846;28;824;-71
2023/06/03 02:15:40;;;;;;;;;;;;;;;;;;5060790;28;1965;-70
2023/06/03 02:18:06;;;;;;;;;;;;;;;;;;5070071;28;1291;-70
2023/06/03 02:20:31;;;;;;;;;;;;;;;;;;5074014;28;1161;-71
2023/06/03 02:22:57;;;;;;;;;;;;;;;;;;5083979;28;1243;-70
2023/06/03 02:25:22;;;;;;;;;;;;;;;;;;5055534;28;1181;-71
2023/06/03 02:27:48;;;;;;;;;;;;;;;;;;5057162;28;1181;-70
2023/06/03 02:30:13;;;;;;;;;;;;;;;;;;5039988;28;1422;-71
2023/06/03 02:32:38;;;;;;;;;;;;;;;;;;5056657;28;695;-70
2023/06/03 02:35:03;;;;;;;;;;;;;;;;;;5056508;28;1987;-70
2023/06/03 02:37:30;;;;;;;;;;;;;;;;;;5074604;28;954;-70
2023/06/03 02:39:56;;;;;;;;;;;;;;;;;;5056851;28;833;-70
2023/06/03 02:42:21;;;;;;;;;;;;;;;;;;5039665;28;696;-70
2023/06/03 02:44:46;;;;;;;;;;;;;;;;;;5057489;28;1079;-71
2023/06/03 02:47:12;;;;;;;;;;;;;;;;;;5056643;28;739;-70
2023/06/03 02:49:37;;;;;;;;;;;;;;;;;;5039860;28;845;-70
2023/06/03 02:52:02;;;;;;;;;;;;;;;;;;5056431;28;1330;-71
2023/06/03 02:54:28;;;;;;;;;;;;;;;;;;5056425;28;1898;-70
2023/06/03 02:56:53;;;;;;;;;;;;;;;;;;5039391;28;663;-69
2023/06/03 02:59:18;;;;;;;;;;;;;;;;;;5038787;28;1199;-70
2023/06/03 03:01:44;;;;;;;;;;;;;;;;;;5074404;28;805;-70
2023/06/03 03:04:09;;;;;;;;;;;;;;;;;;5074005;28;900;-69
2023/06/03 03:06:37;;;;;;;;;;;;;;;;;;5039404;28;1129;-69
2023/06/03 03:09:04;;;;;;;;;;;;;;;;;;5056149;28;920;-69
2023/06/03 03:11:29;;;;;;;;;;;;;;;;;;5073500;28;1223;-69
2023/06/03 03:13:55;;;;;;;;;;;;;;;;;;5054766;28;1985;-69
2023/06/03 03:16:21;;;;;;;;;;;;;;;;;;5037346;28;1327;-70
2023/06/03 03:18:46;;;;;;;;;;;;;;;;;;5055535;28;1227;-69
2023/06/03 03:21:12;;;;;;;;;;;;;;;;;;5063051;28;1228;-69
2023/06/03 03:23:37;;;;;;;;;;;;;;;;;;5073380;28;1191;-70
2023/06/03 03:26:05;;;;;;;;;;;;;;;;;;5062820;28;1279;-70
2023/06/03 03:28:31;;;;;;;;;;;;;;;;;;5054197;28;1523;-70
2023/06/03 03:30:56;;;;;;;;;;;;;;;;;;5072322;28;821;-70
2023/06/03 03:33:22;;;;;;;;;;;;;;;;;;5072427;28;904;-70
2023/06/03 03:35:49;;;;;;;;;;;;;;;;;;5074815;28;1940;-70
2023/06/03 03:38:14;;;;;;;;;;;;;;;;;;5055789;28;1426;-70
2023/06/03 03:40:40;;;;;;;;;;;;;;;;;;5074183;28;778;-70
2023/06/03 03:43:09;;;;;;;;;;;;;;;;;;5039242;28;1354;-70
2023/06/03 03:45:37;;;;;;;;;;;;;;;;;;5073860;28;873;-70
2023/06/03 03:48:04;;;;;;;;;;;;;;;;;;5073778;28;877;-69
2023/06/03 03:50:29;;;;;;;;;;;;;;;;;;5072856;28;804;-69
2023/06/03 03:52:58;;;;;;;;;;;;;;;;;;5073538;28;848;-69
2023/06/03 03:55:24;;;;;;;;;;;;;;;;;;5073069;28;1902;-70
2023/06/03 03:57:50;;;;;;;;;;;;;;;;;;5038786;28;730;-69
2023/06/03 04:00:16;;;;;;;;;;;;;;;;;;5072774;28;1239;-69
2023/06/03 04:02:41;;;;;;;;;;;;;;;;;;5072821;28;886;-69
2023/06/03 04:05:08;;;;;;;;;;;;;;;;;;5055261;28;872;-69
2023/06/03 04:07:38;;;;;;;;;;;;;;;;;;5054559;28;1219;-68
2023/06/03 04:10:08;;;;;;;;;;;;;;;;;;5072535;28;1000;-69
2023/06/03 04:12:36;;;;;;;;;;;;;;;;;;5072339;28;885;-69
2023/06/03 04:15:01;;;;;;;;;;;;;;;;;;5054852;28;1977;-69
2023/06/03 04:17:27;;;;;;;;;;;;;;;;;;5054016;28;801;-69
2023/06/03 04:19:53;;;;;;;;;;;;;;;;;;5072583;28;851;-69
2023/06/03 04:22:20;;;;;;;;;;;;;;;;;;5070993;28;964;-70
2023/06/03 04:24:45;;;;;;;;;;;;;;;;;;5072490;28;845;-69
2023/06/03 04:27:12;;;;;;;;;;;;;;;;;;5054978;28;1528;-69
2023/06/03 04:29:37;;;;;;;;;;;;;;;;;;5054162;28;928;-69
2023/06/03 04:32:03;;;;;;;;;;;;;;;;;;5054376;28;1392;-69
2023/06/03 04:34:29;;;;;;;;;;;;;;;;;;5037385;28;1973;-69
2023/06/03 04:36:54;;;;;;;;;;;;;;;;;;5072256;28;837;-70
2023/06/03 04:39:19;;;;;;;;;;;;;;;;;;5053526;28;1215;-70
2023/06/03 04:41:45;;;;;;;;;;;;;;;;;;5038045;28;1312;-70
2023/06/03 04:44:11;;;;;;;;;;;;;;;;;;5072299;28;813;-70
2023/06/03 04:46:36;;;;;;;;;;;;;;;;;;5072168;28;797;-70
2023/06/03 04:49:02;;;;;;;;;;;;;;;;;;5054666;28;1322;-70
2023/06/03 04:51:27;;;;;;;;;;;;;;;;;;5072131;28;817;-70
2023/06/03 04:53:56;;;;;;;;;;;;;;;;;;5072335;28;1963;-70
2023/06/03 04:56:21;;;;;;;;;;;;;;;;;;5037913;28;1208;-70
2023/06/03 04:58:47;;;;;;;;;;;;;;;;;;5072458;28;1129;-71
2023/06/03 05:01:13;;;;;;;;;;;;;;;;;;5072727;28;872;-70
2023/06/03 05:03:40;;;;;;;;;;;;;;;;;;5072577;28;912;-70
2023/06/03 05:06:10;;;;;;;;;;;;;;;;;;5054276;28;1112;-70
2023/06/03 05:08:35;;;;;;;;;;;;;;;;;;5071262;28;889;-70
2023/06/03 05:11:01;;;;;;;;;;;;;;;;;;5071814;28;908;-70
2023/06/03 05:13:27;;;;;;;;;;;;;;;;;;5053181;28;864;-70
2023/06/03 05:15:52;;;;;;;;;;;;;;;;;;5053841;28;1977;-70
2023/06/03 05:18:17;;;;;;;;;;;;;;;;;;5036400;28;699;-70
2023/06/03 05:20:43;;;;;;;;;;;;;;;;;;5071821;28;837;-70
2023/06/03 05:23:09;;;;;;;;;;;;;;;;;;5053789;28;1092;-70
2023/06/03 05:25:34;;;;;;;;;;;;;;;;;;5037242;28;1373;-70
2023/06/03 05:27:59;;;;;;;;;;;;;;;;;;5054130;28;1088;-70
2023/06/03 05:30:25;;;;;;;;;;;;;;;;;;5053462;28;1247;-70
2023/06/03 05:32:50;;;;;;;;;;;;;;;;;;5072180;28;924;-70
2023/06/03 05:35:15;;;;;;;;;;;;;;;;;;5053517;28;1898;-70
2023/06/03 05:37:41;;;;;;;;;;;;;;;;;;5037325;28;1351;-70
2023/06/03 05:40:06;;;;;;;;;;;;;;;;;;5037220;28;1208;-70
2023/06/03 05:42:32;;;;;;;;;;;;;;;;;;5071675;28;832;-70
2023/06/03 05:44:57;;;;;;;;;;;;;;;;;;5037404;28;911;-70
2023/06/03 05:47:23;;;;;;;;;;;;;;;;;;5053286;28;1291;-70
2023/06/03 05:49:48;;;;;;;;;;;;;;;;;;5053905;28;880;-70
2023/06/03 05:52:13;;;;;;;;;;;;;;;;;;5071415;28;833;-70
2023/06/03 05:54:39;;;;;;;;;;;;;;;;;;5052920;28;1902;-70
2023/06/03 05:57:04;;;;;;;;;;;;;;;;;;5053429;28;1314;-70
2023/06/03 05:59:29;;;;;;;;;;;;;;;;;;5053397;28;1383;-70
2023/06/03 06:01:54;;;;;;;;;;;;;;;;;;5071230;28;983;-70
2023/06/03 06:04:20;;;;;;;;;;;;;;;;;;5052743;28;1394;-71
2023/06/03 06:06:45;;;;;;;;;;;;;;;;;;5053424;28;889;-70
2023/06/03 06:09:11;;;;;;;;;;;;;;;;;;5053821;28;797;-70
2023/06/03 06:11:36;;;;;;;;;;;;;;;;;;5052532;28;892;-70
2023/06/03 06:14:01;;;;;;;;;;;;;;;;;;5053408;28;1914;-70
2023/06/03 06:16:26;;;;;;;;;;;;;;;;;;5053501;28;817;-70
2023/06/03 06:18:52;;;;;;;;;;;;;;;;;;5053718;28;944;-70
2023/06/03 06:21:17;;;;;;;;;;;;;;;;;;5036534;28;1359;-70
2023/06/03 06:23:43;;;;;;;;;;;;;;;;;;5053911;28;1267;-70
2023/06/03 06:26:08;;;;;;;;;;;;;;;;;;5071621;28;900;-70
2023/06/03 06:28:34;;;;;;;;;;;;;;;;;;5071068;28;948;-70
2023/06/03 06:31:04;;;;;;;;;;;;;;;;;;5053088;28;1272;-70
2023/06/03 06:33:30;;;;;;;;;;;;;;;;;;5070275;28;864;-71
2023/06/03 06:35:55;;;;;;;;;;;;;;;;;;5052425;28;1968;-71
2023/06/03 06:38:21;;;;;;;;;;;;;;;;;;5035708;28;1235;-71
2023/06/03 06:40:49;;;;;;;;;;;;;;;;;;5037009;28;1035;-71
2023/06/03 06:43:16;;;;;;;;;;;;;;;;;;5071364;28;1076;-71
2023/06/03 06:45:41;;;;;;;;;;;;;;;;;;5072606;28;881;-71
2023/06/03 06:48:10;;;;;;;;;;;;;;;;;;5074627;28;963;-71
2023/06/03 06:50:50;;;;;;;;;;;;;;;;;;5074045;28;845;-71
2023/06/03 06:53:16;;;;;;;;;;;;;;;;;;5074749;28;872;-70
2023/06/03 06:56:00;;;;;;;;;;;;;;;;;;5056336;28;1887;-70
2023/06/03 06:58:26;;;;;;;;;;;;;;;;;;5056167;28;1216;-70
2023/06/03 07:00:51;;;;;;;;;;;;;;;;;;5033502;28;1377;-71
2023/06/03 07:03:18;;;;;;;;;;;;;;;;;;5034272;28;908;-70
2023/06/03 07:05:46;;;;;;;;;;;;;;;;;;5033814;28;869;-70
2023/06/03 07:08:11;;;;;;;;;;;;;;;;;;5034273;28;837;-70
2023/06/03 07:10:37;;;;;;;;;;;;;;;;;;5033690;28;884;-70
2023/06/03 07:13:03;;;;;;;;;;;;;;;;;;5033365;28;1354;-70
2023/06/03 07:15:28;;;;;;;;;;;;;;;;;;5033864;28;1922;-70
2023/06/03 07:17:56;;;;;;;;;;;;;;;;;;5033384;28;1306;-70
2023/06/03 07:20:35;;;;;;;;;;;;;;;;;;5049560;28;932;-70
2023/06/03 07:23:01;;;;;;;;;;;;;;;;;;5033202;28;1090;-70
2023/06/03 07:25:35;;;;;;;;;;;;;;;;;;5032562;28;860;-70
2023/06/03 07:28:02;;;;;;;;;;;;;;;;;;5034507;28;773;-70
2023/06/03 07:30:27;;;;;;;;;;;;;;;;;;5032567;28;1251;-70
2023/06/03 07:32:57;;;;;;;;;;;;;;;;;;5034521;28;865;-70
2023/06/03 07:35:22;;;;;;;;;;;;;;;;;;5032589;28;1894;-70
2023/06/03 07:37:48;;;;;;;;;;;;;;;;;;5033939;28;888;-70
2023/06/03 07:40:15;;;;;;;;;;;;;;;;;;5017149;28;1396;-71
2023/06/03 07:42:42;;;;;;;;;;;;;;;;;;5016395;28;1384;-70
2023/06/03 07:45:07;;;;;;;;;;;;;;;;;;5033857;28;856;-70
2023/06/03 07:47:33;;;;;;;;;;;;;;;;;;5032392;28;809;-71
2023/06/03 07:50:00;;;;;;;;;;;;;;;;;;5033770;28;1226;-71
2023/06/03 07:52:25;;;;;;;;;;;;;;;;;;5035100;28;829;-70
2023/06/03 07:54:51;;;;;;;;;;;;;;;;;;5034785;28;1953;-71
2023/06/03 07:57:16;;;;;;;;;;;;;;;;;;5033858;28;1011;-70
2023/06/03 08:00:02;;;;;;;;;;;;;;;;;;5016956;28;1241;-70
2023/06/03 08:02:27;;;;;;;;;;;;;;;;;;5033164;28;1238;-70
2023/06/03 08:05:00;;;;;;;;;;;;;;;;;;5033821;28;888;-70
2023/06/03 08:07:27;;;;;;;;;;;;;;;;;;5033632;28;1366;-70
2023/06/03 08:09:52;;;;;;;;;;;;;;;;;;5033371;28;887;-70
2023/06/03 08:12:24;;;;;;;;;;;;;;;;;;5033583;28;1184;-70
2023/06/03 08:14:49;;;;;;;;;;;;;;;;;;5033091;28;1981;-71
2023/06/03 08:17:16;;;;;;;;;;;;;;;;;;5035104;28;817;-71
2023/06/03 08:19:45;;;;;;;;;;;;;;;;;;5033264;28;1003;-70
2023/06/03 08:22:22;;;;;;;;;;;;;;;;;;5031832;28;1396;-70
2023/06/03 08:24:48;;;;;;;;;;;;;;;;;;5030921;28;1347;-71
2023/06/03 08:27:13;;;;;;;;;;;;;;;;;;5026761;28;1359;-70
2023/06/03 08:29:38;;;;;;;;;;;;;;;;;;5052688;28;1011;-70
2023/06/03 08:32:03;;;;;;;;;;;;;;;;;;5051210;28;1510;-70
2023/06/03 08:34:29;;;;;;;;;;;;;;;;;;5052908;28;1898;-70
2023/06/03 08:36:54;;;;;;;;;;;;;;;;;;5051449;28;826;-69
2023/06/03 08:39:20;;;;;;;;;;;;;;;;;;5051580;28;844;-69
2023/06/03 08:41:47;;;;;;;;;;;;;;;;;;5032578;28;1196;-69
2023/06/03 08:44:16;;;;;;;;;;;;;;;;;;5052681;28;1064;-70
2023/06/03 08:46:56;;;;;;;;;;;;;;;;;;5052616;28;920;-70
2023/06/03 08:49:30;;;;;;;;;;;;;;;;;;5051074;28;1422;-70
2023/06/03 08:51:57;;;;;;;;;;;;;;;;;;5051379;28;1350;-72
2023/06/03 08:54:23;;;;;;;;;;;;;;;;;;5049570;28;1902;-70
2023/06/03 08:56:51;;;;;;;;;;;;;;;;;;5048959;28;1231;-70
2023/06/03 08:59:21;;;;;;;;;;;;;;;;;;5050662;28;1350;-70
2023/06/03 09:01:50;;;;;;;;;;;;;;;;;;5052155;28;876;-70
2023/06/03 09:04:15;;;;;;;;;;;;;;;;;;5052407;28;875;-70
2023/06/03 09:06:43;;;;;;;;;;;;;;;;;;5051293;28;896;-70
2023/06/03 09:09:09;;;;;;;;;;;;;;;;;;5052264;28;821;-70
2023/06/03 09:11:35;;;;;;;;;;;;;;;;;;5050552;28;1184;-70
2023/06/03 09:14:01;;;;;;;;;;;;;;;;;;5052804;28;1965;-71
2023/06/03 09:16:27;;;;;;;;;;;;;;;;;;5052295;28;877;-70
2023/06/03 09:18:52;;;;;;;;;;;;;;;;;;5034219;28;1288;-71
2023/06/03 09:21:18;;;;;;;;;;;;;;;;;;5034734;28;1335;-71
2023/06/03 09:23:43;;;;;;;;;;;;;;;;;;5051660;28;1022;-70
2023/06/03 09:26:09;;;;;;;;;;;;;;;;;;5051523;28;1106;-70
2023/06/03 09:28:36;;;;;;;;;;;;;;;;;;5052230;28;978;-70
2023/06/03 09:31:03;;;;;;;;;;;;;;;;;;5050627;28;1378;-71
2023/06/03 09:33:29;;;;;;;;;;;;;;;;;;5049861;28;1346;-71
2023/06/03 09:36:11;;;;;;;;;;;;;;;;;;5051821;28;1971;-71
2023/06/03 09:38:56;;;;;;;;;;;;;;;;;;5049626;28;942;-71
2023/06/03 09:41:25;;;;;;;;;;;;;;;;;;5051694;28;936;-71
2023/06/03 09:43:56;;;;;;;;;;;;;;;;;;5051433;28;903;-71
2023/06/03 09:46:21;;;;;;;;;;;;;;;;;;5051833;28;857;-71
2023/06/03 09:48:47;;;;;;;;;;;;;;;;;;5050276;28;1231;-71
2023/06/03 09:51:12;;;;;;;;;;;;;;;;;;5034181;28;1221;-71
2023/06/03 09:53:37;;;;;;;;;;;;;;;;;;5033268;28;1340;-71
2023/06/03 09:56:22;;;;;;;;;;;;;;;;;;5050509;28;1973;-71
2023/06/03 09:58:48;;;;;;;;;;;;;;;;;;5054613;28;1332;-70
2023/06/03 10:01:13;;;;;;;;;;;;;;;;;;5073955;28;1290;-71
2023/06/03 10:03:56;;;;;;;;;;;;;;;;;;5073384;28;829;-72
2023/06/03 10:06:21;;;;;;;;;;;;;;;;;;5073768;28;722;-70
2023/06/03 10:08:46;;;;;;;;;;;;;;;;;;5091478;28;828;-70
2023/06/03 10:11:11;;;;;;;;;;;;;;;;;;5074550;28;1276;-71
2023/06/03 10:13:37;;;;;;;;;;;;;;;;;;5072988;28;853;-70
2023/06/03 10:16:09;;;;;;;;;;;;;;;;;;5073821;28;1906;-70
2023/06/03 10:18:39;;;;;;;;;;;;;;;;;;5072981;28;1385;-70
2023/06/03 10:21:07;;;;;;;;;;;;;;;;;;5094562;28;911;-72
2023/06/03 10:23:33;;;;;;;;;;;;;;;;;;5095617;28;991;-72
2023/06/03 10:25:59;;;;;;;;;;;;;;;;;;5077167;28;1311;-72
2023/06/03 10:28:25;;;;;;;;;;;;;;;;;;5060861;28;1333;-71
2023/06/03 10:30:51;;;;;;;;;;;;;;;;;;5060579;28;830;-71
2023/06/03 10:33:18;;;;;;;;;;;;;;;;;;5077584;28;1283;-71
2023/06/03 10:35:44;;;;;;;;;;;;;;;;;;5095373;28;1973;-71
2023/06/03 10:38:10;;;;;;;;;;;;;;;;;;5095015;28;853;-71
2023/06/03 10:40:35;;;;;;;;;;;;;;;;;;5059866;28;1220;-71
2023/06/03 10:43:02;;;;;;;;;;;;;;;;;;5076967;28;1211;-71
2023/06/03 10:45:28;;;;;;;;;;;;;;;;;;5076788;28;1334;-71
2023/06/03 10:47:57;;;;;;;;;;;;;;;;;;5076626;28;864;-71
2023/06/03 10:50:41;;;;;;;;;;;;;;;;;;5076410;28;1330;-72
2023/06/03 10:53:16;;;;;;;;;;;;;;;;;;5095298;28;840;-72
2023/06/03 10:56:01;;;;;;;;;;;;;;;;;;5094793;28;1893;-71
2023/06/03 10:58:30;;;;;;;;;;;;;;;;;;5094527;28;904;-71
2023/06/03 11:00:56;;;;;;;;;;;;;;;;;;5076104;28;1185;-70
2023/06/03 11:03:27;;;;;;;;;;;;;;;;;;5094937;28;995;-70
2023/06/03 11:05:53;;;;;;;;;;;;;;;;;;5095286;28;912;-71
2023/06/03 11:08:37;;;;;;;;;;;;;;;;;;5077222;28;683;-70
2023/06/03 11:11:02;;;;;;;;;;;;;;;;;;5095932;28;894;-71
2023/06/03 11:13:37;;;;;;;;;;;;;;;;;;5076946;28;1650;-70
2023/06/03 11:16:03;;;;;;;;;;;;;;;;;;5094360;28;1902;-70
2023/06/03 11:18:29;;;;;;;;;;;;;;;;;;5094504;28;859;-70
2023/06/03 11:20:54;;;;;;;;;;;;;;;;;;5077310;28;805;-71
2023/06/03 11:23:39;;;;;;;;;;;;;;;;;;5095228;28;916;-70
2023/06/03 11:26:23;;;;;;;;;;;;;;;;;;5094213;28;924;-70
2023/06/03 11:28:48;;;;;;;;;;;;;;;;;;5075173;28;1111;-70
2023/06/03 11:31:17;;;;;;;;;;;;;;;;;;5094074;28;920;-70
2023/06/03 11:34:02;;;;;;;;;;;;;;;;;;5094055;28;880;-71
2023/06/03 11:36:50;;;;;;;;;;;;;;;;;;5075909;28;1087;-70
2023/06/03 11:39:15;;;;;;;;;;;;;;;;;;5076226;28;757;-70
2023/06/03 11:42:01;;;;;;;;;;;;;;;;;;5074154;28;1239;-71
2023/06/03 11:44:26;;;;;;;;;;;;;;;;;;5072142;28;950;-71
2023/06/03 11:46:52;;;;;;;;;;;;;;;;;;5072483;28;904;-70
2023/06/03 11:49:19;;;;;;;;;;;;;;;;;;5055581;28;1352;-71
2023/06/03 11:51:46;;;;;;;;;;;;;;;;;;5073657;28;880;-71
2023/06/03 11:54:12;;;;;;;;;;;;;;;;;;5055848;28;1965;-71
2023/06/03 11:56:51;;;;;;;;;;;;;;;;;;5038652;28;686;-71
2023/06/03 11:59:19;;;;;;;;;;;;;;;;;;5055618;28;1251;-71
2023/06/03 12:02:00;;;;;;;;;;;;;;;;;;5055093;28;1215;-71
2023/06/03 12:04:26;;;;;;;;;;;;;;;;;;5055839;28;1235;-71
2023/06/03 12:06:51;;;;;;;;;;;;;;;;;;5054696;28;1239;-71
2023/06/03 12:09:20;;;;;;;;;;;;;;;;;;5055579;28;853;-71
2023/06/03 12:11:46;;;;;;;;;;;;;;;;;;5073032;28;766;-72
2023/06/03 12:14:28;;;;;;;;;;;;;;;;;;5055478;28;1957;-72
2023/06/03 12:16:56;;;;;;;;;;;;;;;;;;5054791;28;1149;-70
2023/06/03 12:19:21;;;;;;;;;;;;;;;;;;5073161;28;810;-71
2023/06/03 12:21:54;;;;;;;;;;;;;;;;;;5054601;28;1496;-71
2023/06/03 12:24:25;;;;;;;;;;;;;;;;;;5073356;28;906;-71
2023/06/03 12:26:50;;;;;;;;;;;;;;;;;;5072910;28;841;-71
2023/06/03 12:29:16;;;;;;;;;;;;;;;;;;5055363;28;844;-71
2023/06/03 12:31:55;;;;;;;;;;;;;;;;;;5038939;28;1367;-71
2023/06/03 12:34:28;;;;;;;;;;;;;;;;;;5073328;28;1886;-71
2023/06/03 12:36:53;;;;;;;;;;;;;;;;;;5073202;28;825;-71
2023/06/03 12:39:19;;;;;;;;;;;;;;;;;;5073143;28;890;-70
2023/06/03 12:41:49;;;;;;;;;;;;;;;;;;5054828;28;1239;-71
2023/06/03 12:44:15;;;;;;;;;;;;;;;;;;5038816;28;899;-71
2023/06/03 12:46:40;;;;;;;;;;;;;;;;;;5038913;28;1346;-72
2023/06/03 12:49:15;;;;;;;;;;;;;;;;;;5054729;28;667;-71
2023/06/03 12:51:40;;;;;;;;;;;;;;;;;;5054527;28;1341;-71
2023/06/03 12:54:06;;;;;;;;;;;;;;;;;;5054352;28;1898;-70
2023/06/03 12:56:32;;;;;;;;;;;;;;;;;;5072033;28;903;-71
2023/06/03 12:58:57;;;;;;;;;;;;;;;;;;5053752;28;1066;-71
2023/06/03 13:01:23;;;;;;;;;;;;;;;;;;5053945;28;1195;-71
2023/06/03 13:03:54;;;;;;;;;;;;;;;;;;5054261;28;1191;-71
2023/06/03 13:06:19;;;;;;;;;;;;;;;;;;5038395;28;1343;-71
2023/06/03 13:08:45;;;;;;;;;;;;;;;;;;5054166;28;1216;-72
2023/06/03 13:11:11;;;;;;;;;;;;;;;;;;5054095;28;913;-71
2023/06/03 13:13:36;;;;;;;;;;;;;;;;;;5053978;28;915;-71
2023/06/03 13:16:03;;;;;;;;;;;;;;;;;;5053344;28;1973;-71
2023/06/03 13:18:28;;;;;;;;;;;;;;;;;;5054272;28;837;-71
2023/06/03 13:20:54;;;;;;;;;;;;;;;;;;5053577;28;826;-71
2023/06/03 13:23:19;;;;;;;;;;;;;;;;;;5053699;28;1473;-72
2023/06/03 13:25:44;;;;;;;;;;;;;;;;;;5071985;28;840;-71
2023/06/03 13:28:10;;;;;;;;;;;;;;;;;;5053887;28;1235;-71
2023/06/03 13:30:35;;;;;;;;;;;;;;;;;;5053751;28;1192;-71
2023/06/03 13:33:01;;;;;;;;;;;;;;;;;;5053781;28;1373;-71
2023/06/03 13:35:26;;;;;;;;;;;;;;;;;;5053837;28;1906;-71
2023/06/03 13:37:52;;;;;;;;;;;;;;;;;;5071990;28;797;-71
2023/06/03 13:40:18;;;;;;;;;;;;;;;;;;5053408;28;1359;-71
2023/06/03 13:42:43;;;;;;;;;;;;;;;;;;5037204;28;1232;-71
2023/06/03 13:45:11;;;;;;;;;;;;;;;;;;5036884;28;1160;-71
2023/06/03 13:47:36;;;;;;;;;;;;;;;;;;5053109;28;864;-72
2023/06/03 13:50:02;;;;;;;;;;;;;;;;;;5071423;28;884;-72
2023/06/03 13:52:28;;;;;;;;;;;;;;;;;;5071551;28;932;-72
2023/06/03 13:54:53;;;;;;;;;;;;;;;;;;5073719;28;1905;-72
2023/06/03 13:57:18;;;;;;;;;;;;;;;;;;5040902;28;1331;-72
2023/06/03 13:59:46;;;;;;;;;;;;;;;;;;5043646;28;1234;-72
2023/06/03 14:02:13;;;;;;;;;;;;;;;;;;5034381;28;1193;-70
2023/06/03 14:04:38;;;;;;;;;;;;;;;;;;5034546;28;853;-70
2023/06/03 14:07:03;;;;;;;;;;;;;;;;;;5034647;28;810;-71
2023/06/03 14:09:29;;;;;;;;;;;;;;;;;;5034437;28;984;-71
2023/06/03 14:11:54;;;;;;;;;;;;;;;;;;5034752;28;1307;-71
2023/06/03 14:14:20;;;;;;;;;;;;;;;;;;5034272;28;1919;-70
2023/06/03 14:16:45;;;;;;;;;;;;;;;;;;5036041;28;874;-71
2023/06/03 14:19:11;;;;;;;;;;;;;;;;;;5018642;28;857;-71
2023/06/03 14:21:36;;;;;;;;;;;;;;;;;;5036743;28;908;-71
2023/06/03 14:24:01;;;;;;;;;;;;;;;;;;5034749;28;1116;-70
2023/06/03 14:26:27;;;;;;;;;;;;;;;;;;5036060;28;837;-71
2023/06/03 14:28:52;;;;;;;;;;;;;;;;;;5034942;28;908;-65
2023/06/03 14:31:17;;;;;;;;;;;;;;;;;;5016867;28;995;-65
2023/06/03 14:33:43;;;;;;;;;;;;;;;;;;5034824;28;849;-64
2023/06/03 14:36:09;;;;;;;;;;;;;;;;;;5032664;28;1969;-65
2023/06/03 14:38:34;;;;;;;;;;;;;;;;;;5033757;28;1219;-65
2023/06/03 14:41:01;;;;;;;;;;;;;;;;;;5034593;28;849;-65
2023/06/03 14:43:26;;;;;;;;;;;;;;;;;;5017165;28;1232;-64
2023/06/03 14:45:51;;;;;;;;;;;;;;;;;;5016812;28;1098;-64
2023/06/03 14:48:16;;;;;;;;;;;;;;;;;;5032749;28;842;-64
2023/06/03 14:50:42;;;;;;;;;;;;;;;;;;5034371;28;802;-65
2023/06/03 14:53:07;;;;;;;;;;;;;;;;;;5033188;28;932;-64
2023/06/03 14:55:32;;;;;;;;;;;;;;;;;;5034109;28;1959;-65
2023/06/03 14:57:58;;;;;;;;;;;;;;;;;;5032850;28;1315;-65
2023/06/03 15:00:23;;;;;;;;;;;;;;;;;;5032943;28;1087;-65
2023/06/03 15:02:48;;;;;;;;;;;;;;;;;;5033811;28;920;-64
2023/06/03 15:05:13;;;;;;;;;;;;;;;;;;5034214;28;825;-64
2023/06/03 15:07:39;;;;;;;;;;;;;;;;;;5032347;28;1097;-64
2023/06/03 15:10:04;;;;;;;;;;;;;;;;;;5016089;28;1111;-64
2023/06/03 15:12:29;;;;;;;;;;;;;;;;;;5033863;28;1014;-64
2023/06/03 15:14:55;;;;;;;;;;;;;;;;;;5032766;28;1906;-64
2023/06/03 15:17:20;;;;;;;;;;;;;;;;;;5032954;28;1299;-64
2023/06/03 15:19:46;;;;;;;;;;;;;;;;;;5033972;28;896;-65
2023/06/03 15:22:11;;;;;;;;;;;;;;;;;;5034443;28;964;-65
2023/06/03 15:24:36;;;;;;;;;;;;;;;;;;5032868;28;1185;-64
2023/06/03 15:27:05;;;;;;;;;;;;;;;;;;5033573;28;758;-64
2023/06/03 15:29:30;;;;;;;;;;;;;;;;;;5032960;28;1205;-65
2023/06/03 15:31:55;;;;;;;;;;;;;;;;;;5033644;28;951;-64
2023/06/03 15:34:21;;;;;;;;;;;;;;;;;;5034623;28;1961;-64
2023/06/03 15:36:46;;;;;;;;;;;;;;;;;;5016275;28;1220;-64
2023/06/03 15:39:11;;;;;;;;;;;;;;;;;;5016408;28;707;-64
2023/06/03 15:41:36;;;;;;;;;;;;;;;;;;5016298;28;1291;-65
2023/06/03 15:44:02;;;;;;;;;;;;;;;;;;5032959;28;830;-64
2023/06/03 15:46:27;;;;;;;;;;;;;;;;;;5033658;28;919;-64
2023/06/03 15:48:52;;;;;;;;;;;;;;;;;;5015576;28;1228;-64
2023/06/03 15:51:18;;;;;;;;;;;;;;;;;;5032055;28;956;-64
2023/06/03 15:53:43;;;;;;;;;;;;;;;;;;5033277;28;774;-65
2023/06/03 15:56:09;;;;;;;;;;;;;;;;;;5015316;28;1910;-65
2023/06/03 15:58:34;;;;;;;;;;;;;;;;;;5032313;28;1454;-65
2023/06/03 16:00:59;;;;;;;;;;;;;;;;;;5072684;28;1056;-65
2023/06/03 16:03:25;;;;;;;;;;;;;;;;;;5054734;28;900;-65
2023/06/03 16:05:50;;;;;;;;;;;;;;;;;;5055172;28;1272;-65
2023/06/03 16:08:16;;;;;;;;;;;;;;;;;;5054726;28;775;-71
2023/06/03 16:10:42;;;;;;;;;;;;;;;;;;5072809;28;818;-71
2023/06/03 16:13:07;;;;;;;;;;;;;;;;;;5054928;28;1377;-71
2023/06/03 16:15:32;;;;;;;;;;;;;;;;;;5073328;28;1902;-71
2023/06/03 16:17:58;;;;;;;;;;;;;;;;;;5053511;28;1238;-71
2023/06/03 16:20:23;;;;;;;;;;;;;;;;;;5054862;28;810;-71
2023/06/03 16:22:48;;;;;;;;;;;;;;;;;;5072475;28;990;-71
2023/06/03 16:25:14;;;;;;;;;;;;;;;;;;5055514;28;730;-70
2023/06/03 16:27:40;;;;;;;;;;;;;;;;;;5072580;28;908;-70
2023/06/03 16:30:06;;;;;;;;;;;;;;;;;;5037987;28;1123;-71
2023/06/03 16:32:32;;;;;;;;;;;;;;;;;;5073092;28;810;-71
2023/06/03 16:34:57;;;;;;;;;;;;;;;;;;5071916;28;1961;-71
2023/06/03 16:37:22;;;;;;;;;;;;;;;;;;5053021;28;1322;-70
2023/06/03 16:39:48;;;;;;;;;;;;;;;;;;5037487;28;1367;-71
2023/06/03 16:42:13;;;;;;;;;;;;;;;;;;5054284;28;1235;-71
2023/06/03 16:44:38;;;;;;;;;;;;;;;;;;5054248;28;1141;-71
2023/06/03 16:47:07;;;;;;;;;;;;;;;;;;5038011;28;1556;-71
2023/06/03 16:49:32;;;;;;;;;;;;;;;;;;5037410;28;1263;-71
2023/06/03 16:51:58;;;;;;;;;;;;;;;;;;5054079;28;1188;-71
2023/06/03 16:54:23;;;;;;;;;;;;;;;;;;5054183;28;1915;-71
2023/06/03 16:56:48;;;;;;;;;;;;;;;;;;5055113;28;845;-71
2023/06/03 16:59:14;;;;;;;;;;;;;;;;;;5072673;28;1318;-71
2023/06/03 17:01:40;;;;;;;;;;;;;;;;;;5054009;28;1353;-71
2023/06/03 17:04:06;;;;;;;;;;;;;;;;;;5053863;28;813;-71
2023/06/03 17:06:31;;;;;;;;;;;;;;;;;;5053294;28;1337;-71
2023/06/03 17:08:56;;;;;;;;;;;;;;;;;;5052634;28;1246;-71